createdAt,value
2018-06-13T00:02:19.498Z,0.90
2018-06-13T00:04:48.079Z,0.97
2018-06-13T00:07:16.928Z,0.90
2018-06-13T00:09:45.499Z,1.00
2018-06-13T00:12:14.074Z,0.73
2018-06-13T00:14:42.666Z,0.60
2018-06-13T00:17:11.245Z,0.70
2018-06-13T00:19:39.826Z,0.60
2018-06-13T00:22:08.431Z,0.63
2018-06-13T00:24:37.584Z,0.60
2018-06-13T00:27:06.194Z,0.70
2018-06-13T00:29:34.955Z,0.80
2018-06-13T00:32:03.536Z,0.80
2018-06-13T00:34:32.141Z,0.87
2018-06-13T00:37:00.770Z,0.80
2018-06-13T00:39:29.377Z,0.80
2018-06-13T00:41:57.951Z,0.90
2018-06-13T00:44:26.544Z,0.80
2018-06-13T00:46:55.104Z,0.80
2018-06-13T00:49:23.685Z,0.80
2018-06-13T00:51:52.287Z,0.80
2018-06-13T00:54:20.878Z,1.20
2018-06-13T00:56:49.468Z,1.00
2018-06-13T00:59:18.073Z,1.10
2018-06-13T01:01:46.639Z,0.90
2018-06-13T01:04:15.239Z,0.90
2018-06-13T01:06:43.836Z,1.10
2018-06-13T01:09:12.428Z,0.90
2018-06-13T01:11:41.027Z,1.10
2018-06-13T01:14:09.592Z,0.97
2018-06-13T01:16:38.188Z,1.00
2018-06-13T01:19:07.623Z,1.10
2018-06-13T01:21:36.220Z,0.80
2018-06-13T01:24:04.808Z,1.10
2018-06-13T01:26:33.989Z,0.90
2018-06-13T01:29:02.591Z,1.20
2018-06-13T01:34:12.244Z,1.10
2018-06-13T01:36:40.824Z,1.23
2018-06-13T01:39:09.412Z,1.10
2018-06-13T01:41:38.031Z,1.00
2018-06-13T01:44:06.635Z,0.80
2018-06-13T01:46:35.240Z,0.80
2018-06-13T01:49:03.836Z,0.90
2018-06-13T01:51:32.436Z,0.80
2018-06-13T01:54:01.061Z,0.90
2018-06-13T01:56:30.674Z,0.90
2018-06-13T01:58:59.279Z,1.00
2018-06-13T02:01:28.340Z,0.90
2018-06-13T02:03:56.912Z,0.80
2018-06-13T02:06:25.550Z,0.80
2018-06-13T02:08:54.140Z,0.80
2018-06-13T02:11:22.743Z,0.90
2018-06-13T02:13:51.319Z,0.70
2018-06-13T02:16:19.891Z,0.83
2018-06-13T02:18:48.476Z,0.90
2018-06-13T02:21:17.347Z,0.97
2018-06-13T02:23:46.052Z,0.70
2018-06-13T02:26:14.622Z,0.70
2018-06-13T02:28:43.219Z,1.00
2018-06-13T02:31:11.791Z,1.00
2018-06-13T02:33:40.404Z,0.93
2018-06-13T02:36:09.004Z,0.90
2018-06-13T02:38:37.571Z,1.17
2018-06-13T02:41:06.516Z,0.70
2018-06-13T02:43:35.101Z,0.70
2018-06-13T02:46:03.694Z,0.73
2018-06-13T02:48:32.332Z,0.77
2018-06-13T02:51:01.785Z,0.77
2018-06-13T02:53:30.492Z,0.87
2018-06-13T02:55:59.132Z,0.80
2018-06-13T02:58:27.732Z,0.73
2018-06-13T03:00:56.332Z,0.90
2018-06-13T03:03:25.479Z,0.80
2018-06-13T03:05:54.061Z,0.90
2018-06-13T03:08:22.649Z,1.10
2018-06-13T03:10:51.260Z,0.80
2018-06-13T03:13:19.860Z,0.80
2018-06-13T03:15:48.452Z,0.70
2018-06-13T03:18:17.026Z,0.80
2018-06-13T03:20:45.606Z,0.70
2018-06-13T03:23:14.204Z,0.67
2018-06-13T03:25:42.859Z,0.70
2018-06-13T03:28:11.444Z,0.70
2018-06-13T03:30:40.025Z,0.67
2018-06-13T03:33:08.608Z,0.67
2018-06-13T03:35:37.177Z,0.60
2018-06-13T03:38:05.747Z,0.70
2018-06-13T03:40:34.327Z,0.90
2018-06-13T03:43:02.921Z,0.70
2018-06-13T03:45:31.521Z,0.90
2018-06-13T03:48:00.108Z,0.90
2018-06-13T03:50:29.454Z,0.63
2018-06-13T03:52:58.016Z,0.70
2018-06-13T03:55:26.596Z,0.80
2018-06-13T03:57:55.421Z,0.70
2018-06-13T04:00:24.002Z,0.70
2018-06-13T04:02:52.603Z,0.63
2018-06-13T04:05:21.215Z,0.57
2018-06-13T04:07:49.782Z,0.80
2018-06-13T04:10:18.404Z,0.60
2018-06-13T04:12:47.000Z,0.60
2018-06-13T04:15:15.578Z,0.40
2018-06-13T04:17:44.364Z,0.30
2018-06-13T04:20:12.928Z,0.30
2018-06-13T04:22:41.537Z,0.37
2018-06-13T04:25:10.092Z,0.20
2018-06-13T04:27:38.677Z,0.40
2018-06-13T04:30:07.526Z,0.30
2018-06-13T04:32:36.098Z,0.40
2018-06-13T04:35:04.682Z,0.30
2018-06-13T04:37:33.256Z,0.30
2018-06-13T04:40:02.448Z,0.20
2018-06-13T04:42:31.071Z,0.20
2018-06-13T04:44:59.651Z,0.30
2018-06-13T04:47:28.248Z,0.20
2018-06-13T04:49:56.811Z,0.20
2018-06-13T04:52:25.387Z,0.30
2018-06-13T04:54:54.022Z,0.27
2018-06-13T04:57:22.664Z,0.30
2018-06-13T04:59:51.253Z,0.20
2018-06-13T05:02:19.843Z,0.30
2018-06-13T05:04:48.408Z,0.20
2018-06-13T05:07:17.588Z,0.20
2018-06-13T05:09:46.169Z,0.30
2018-06-13T05:12:14.724Z,0.30
2018-06-13T05:14:43.351Z,0.30
2018-06-13T05:17:11.903Z,0.57
2018-06-13T05:19:40.516Z,0.30
2018-06-13T05:22:09.080Z,0.40
2018-06-13T05:24:37.664Z,0.40
2018-06-13T05:27:06.244Z,0.40
2018-06-13T05:29:35.248Z,0.40
2018-06-13T05:32:03.891Z,0.30
2018-06-13T05:34:32.468Z,0.50
2018-06-13T05:37:01.072Z,0.40
2018-06-13T05:39:29.655Z,0.30
2018-06-13T05:41:58.303Z,0.40
2018-06-13T05:44:26.935Z,0.20
2018-06-13T05:46:55.520Z,0.40
2018-06-13T05:49:24.112Z,0.40
2018-06-13T05:51:52.692Z,0.47
2018-06-13T05:54:21.263Z,0.20
2018-06-13T05:56:50.453Z,0.23
2018-06-13T05:59:19.066Z,0.30
2018-06-13T06:01:47.637Z,0.30
2018-06-13T06:04:16.212Z,0.30
2018-06-13T06:06:44.964Z,0.27
2018-06-13T06:09:13.748Z,0.40
2018-06-13T06:11:43.118Z,0.50
2018-06-13T06:14:11.712Z,0.50
2018-06-13T06:16:40.344Z,0.30
2018-06-13T06:19:08.942Z,0.40
2018-06-13T06:21:37.540Z,0.30
2018-06-13T06:24:06.377Z,0.50
2018-06-13T06:26:34.974Z,0.60
2018-06-13T06:29:03.581Z,0.50
2018-06-13T06:31:32.175Z,0.40
2018-06-13T06:34:01.416Z,0.40
2018-06-13T06:36:30.018Z,0.47
2018-06-13T06:38:58.787Z,0.40
2018-06-13T06:41:27.368Z,0.40
2018-06-13T06:43:55.990Z,0.50
2018-06-13T06:46:24.251Z,0.50
2018-06-13T06:48:52.856Z,0.50
2018-06-13T06:51:21.440Z,0.47
2018-06-13T06:53:50.028Z,0.50
2018-06-13T06:56:19.256Z,0.50
2018-06-13T06:58:48.560Z,0.50
2018-06-13T07:01:17.145Z,0.40
2018-06-13T07:03:45.928Z,0.47
2018-06-13T07:06:14.524Z,0.40
2018-06-13T07:08:43.093Z,0.40
2018-06-13T07:11:12.352Z,0.40
2018-06-13T07:13:40.943Z,0.40
2018-06-13T07:16:09.516Z,0.40
2018-06-13T07:18:38.356Z,0.37
2018-06-13T07:21:07.227Z,0.40
2018-06-13T07:23:35.863Z,0.43
2018-06-13T07:26:04.456Z,0.50
2018-06-13T07:28:33.290Z,0.40
2018-06-13T07:31:02.056Z,0.40
2018-06-13T07:33:31.461Z,0.40
2018-06-13T07:36:00.580Z,0.77
2018-06-13T07:38:29.184Z,0.40
2018-06-13T07:40:57.782Z,0.50
2018-06-13T07:43:26.361Z,0.40
2018-06-13T07:45:54.959Z,0.40
2018-06-13T07:48:23.785Z,0.50
2018-06-13T07:50:52.568Z,0.50
2018-06-13T07:53:21.281Z,0.40
2018-06-13T07:55:50.707Z,0.40
2018-06-13T07:58:19.284Z,0.50
2018-06-13T08:00:47.538Z,0.40
2018-06-13T08:03:16.121Z,0.37
2018-06-13T08:05:44.726Z,0.40
2018-06-13T08:08:13.328Z,0.50
2018-06-13T08:10:41.899Z,0.50
2018-06-13T08:13:11.107Z,0.50
2018-06-13T08:15:39.704Z,0.50
2018-06-13T08:18:08.276Z,0.50
2018-06-13T08:20:37.348Z,0.40
2018-06-13T08:23:06.185Z,0.40
2018-06-13T08:25:35.536Z,0.50
2018-06-13T08:28:04.128Z,0.50
2018-06-13T08:30:32.708Z,0.50
2018-06-13T08:33:01.306Z,0.50
2018-06-13T08:35:29.880Z,0.50
2018-06-13T08:37:58.871Z,0.50
2018-06-13T08:40:27.560Z,0.40
2018-06-13T08:42:57.724Z,0.50
2018-06-13T08:45:26.899Z,0.40
2018-06-13T08:47:55.491Z,0.57
2018-06-13T08:50:24.235Z,0.50
2018-06-13T08:52:53.031Z,0.47
2018-06-13T08:55:21.686Z,0.50
2018-06-13T08:57:50.296Z,0.53
2018-06-13T09:00:18.910Z,0.50
2018-06-13T09:02:47.513Z,0.53
2018-06-13T09:05:16.108Z,0.50
2018-06-13T09:07:44.712Z,0.50
2018-06-13T09:10:13.304Z,0.40
2018-06-13T09:12:41.896Z,0.60
2018-06-13T09:15:10.532Z,0.60
2018-06-13T09:17:39.116Z,0.47
2018-06-13T09:20:07.836Z,0.60
2018-06-13T09:22:36.566Z,0.50
2018-06-13T09:25:05.287Z,0.50
2018-06-13T09:27:33.896Z,0.60
2018-06-13T09:30:02.476Z,0.50
2018-06-13T09:32:31.252Z,0.57
2018-06-13T09:34:59.827Z,0.50
2018-06-13T09:37:28.513Z,0.50
2018-06-13T09:39:58.492Z,0.40
2018-06-13T09:42:27.096Z,0.53
2018-06-13T09:44:55.442Z,0.50
2018-06-13T09:47:24.016Z,0.60
2018-06-13T09:49:52.612Z,0.60
2018-06-13T09:52:21.364Z,0.50
2018-06-13T09:54:50.013Z,0.50
2018-06-13T09:57:18.545Z,0.60
2018-06-13T09:59:52.552Z,0.60
2018-06-13T10:02:25.329Z,0.50
2018-06-13T10:04:53.924Z,0.60
2018-06-13T10:07:22.508Z,0.40
2018-06-13T10:09:51.075Z,0.50
2018-06-13T10:12:19.652Z,0.60
2018-06-13T10:14:48.278Z,0.60
2018-06-13T10:17:16.977Z,0.50
2018-06-13T10:19:45.223Z,0.40
2018-06-13T10:22:13.815Z,0.43
2018-06-13T10:24:42.403Z,0.40
2018-06-13T10:27:16.340Z,0.50
2018-06-13T10:29:45.069Z,0.40
2018-06-13T10:32:13.641Z,0.50
2018-06-13T10:34:42.244Z,0.50
2018-06-13T10:37:10.848Z,0.50
2018-06-13T10:39:39.424Z,0.50
2018-06-13T10:42:08.716Z,0.60
2018-06-13T10:44:37.313Z,0.40
2018-06-13T10:47:05.948Z,0.43
2018-06-13T10:49:34.525Z,0.50
2018-06-13T10:52:03.100Z,0.40
2018-06-13T10:54:32.297Z,0.50
2018-06-13T10:57:00.954Z,0.50
2018-06-13T10:59:29.528Z,0.57
2018-06-13T11:01:58.387Z,0.50
2018-06-13T11:04:26.989Z,0.57
2018-06-13T11:06:55.598Z,0.50
2018-06-13T11:09:25.704Z,0.60
2018-06-13T11:11:54.720Z,0.50
2018-06-13T11:14:23.447Z,0.60
2018-06-13T11:16:52.021Z,0.50
2018-06-13T11:19:20.624Z,0.60
2018-06-13T11:21:49.207Z,0.50
2018-06-13T11:24:17.808Z,0.60
2018-06-13T11:26:46.389Z,0.50
2018-06-13T11:29:15.087Z,0.53
2018-06-13T11:31:43.635Z,0.60
2018-06-13T11:34:12.924Z,0.50
2018-06-13T11:36:41.534Z,0.60
2018-06-13T11:39:12.224Z,0.70
2018-06-13T11:41:41.198Z,0.70
2018-06-13T11:44:09.844Z,0.60
2018-06-13T11:46:39.286Z,0.50
2018-06-13T11:49:08.303Z,0.60
2018-06-13T11:51:36.938Z,0.53
2018-06-13T11:54:05.780Z,0.60
2018-06-13T11:56:34.738Z,0.50
2018-06-13T11:59:03.583Z,0.50
2018-06-13T12:01:32.171Z,0.50
2018-06-13T12:04:00.767Z,0.50
2018-06-13T12:06:29.559Z,0.50
2018-06-13T12:08:58.184Z,0.50
2018-06-13T12:11:26.780Z,0.57
2018-06-13T12:13:55.399Z,0.60
2018-06-13T12:16:24.087Z,0.60
2018-06-13T12:18:53.091Z,0.60
2018-06-13T12:21:21.688Z,0.57
2018-06-13T12:23:50.268Z,0.50
2018-06-13T12:26:19.024Z,0.70
2018-06-13T12:28:47.711Z,0.57
2018-06-13T12:31:16.296Z,0.60
2018-06-13T12:33:44.910Z,0.73
2018-06-13T12:36:13.681Z,0.50
2018-06-13T12:38:42.512Z,0.60
2018-06-13T12:41:11.112Z,0.50
2018-06-13T12:43:39.692Z,0.60
2018-06-13T12:46:08.288Z,0.60
2018-06-13T12:48:36.607Z,0.60
2018-06-13T12:51:05.251Z,0.50
2018-06-13T12:53:34.028Z,0.80
2018-06-13T12:56:02.620Z,0.80
2018-06-13T12:58:31.746Z,0.70
2018-06-13T13:01:00.333Z,0.80
2018-06-13T13:03:29.896Z,0.60
2018-06-13T13:05:58.468Z,0.60
2018-06-13T13:08:26.803Z,0.70
2018-06-13T13:10:55.479Z,0.90
2018-06-13T13:13:24.253Z,0.80
2018-06-13T13:15:52.880Z,0.60
2018-06-13T13:18:21.631Z,0.50
2018-06-13T13:20:50.367Z,0.60
2018-06-13T13:23:21.933Z,0.50
2018-06-13T13:25:53.896Z,0.57
2018-06-13T13:28:22.692Z,0.70
2018-06-13T13:30:51.296Z,0.60
2018-06-13T13:33:21.021Z,0.53
2018-06-13T13:35:50.560Z,0.50
2018-06-13T13:38:19.296Z,0.60
2018-06-13T13:40:47.904Z,0.70
2018-06-13T13:43:17.997Z,0.60
2018-06-13T13:45:47.397Z,0.60
2018-06-13T13:48:16.620Z,0.70
2018-06-13T13:50:45.565Z,0.60
2018-06-13T13:53:14.838Z,0.80
2018-06-13T13:55:43.079Z,0.63
2018-06-13T13:58:11.676Z,0.60
2018-06-13T14:00:40.272Z,0.60
2018-06-13T14:03:08.987Z,0.50
2018-06-13T14:05:37.957Z,0.70
2018-06-13T14:08:06.307Z,0.70
2018-06-13T14:10:34.889Z,0.50
2018-06-13T14:13:03.487Z,0.60
2018-06-13T14:15:33.769Z,0.60
2018-06-13T14:18:02.352Z,0.60
2018-06-13T14:20:31.006Z,0.70
2018-06-13T14:23:00.694Z,0.60
2018-06-13T14:25:29.417Z,0.60
2018-06-13T14:27:58.047Z,0.70
2018-06-13T14:30:26.603Z,0.87
2018-06-13T14:32:55.451Z,0.50
2018-06-13T14:35:24.446Z,0.70
2018-06-13T14:37:53.089Z,0.60
2018-06-13T14:40:21.659Z,0.50
2018-06-13T14:42:50.427Z,0.60
2018-06-13T14:45:19.032Z,0.70
2018-06-13T14:47:47.636Z,0.57
2018-06-13T14:50:16.220Z,0.50
2018-06-13T14:52:44.858Z,0.50
2018-06-13T14:55:13.500Z,0.70
2018-06-13T14:57:42.232Z,0.60
2018-06-13T15:00:10.839Z,0.50
2018-06-13T15:02:39.418Z,0.50
2018-06-13T15:05:08.227Z,0.50
2018-06-13T15:07:36.828Z,0.50
2018-06-13T15:10:05.440Z,0.70
2018-06-13T15:12:34.027Z,0.60
2018-06-13T15:15:03.044Z,0.50
2018-06-13T15:17:32.364Z,0.60
2018-06-13T15:20:00.717Z,0.60
2018-06-13T15:22:29.337Z,0.80
2018-06-13T15:24:57.917Z,0.60
2018-06-13T15:27:26.553Z,0.73
2018-06-13T15:29:55.132Z,0.50
2018-06-13T15:32:23.730Z,0.50
2018-06-13T15:34:52.345Z,0.60
2018-06-13T15:37:20.955Z,0.63
2018-06-13T15:39:49.698Z,0.60
2018-06-13T15:42:26.432Z,0.60
2018-06-13T15:44:55.029Z,0.50
2018-06-13T15:47:23.652Z,0.60
2018-06-13T15:49:52.381Z,0.50
2018-06-13T15:52:20.960Z,0.50
2018-06-13T15:54:49.543Z,0.40
2018-06-13T15:57:18.411Z,0.43
2018-06-13T15:59:47.019Z,0.50
2018-06-13T16:02:15.594Z,0.43
2018-06-13T16:04:44.168Z,0.90
2018-06-13T16:07:12.756Z,0.70
2018-06-13T16:09:41.363Z,0.50
2018-06-13T16:12:10.112Z,0.50
2018-06-13T16:14:38.696Z,0.57
2018-06-13T16:17:06.979Z,0.50
2018-06-13T16:19:35.631Z,0.70
2018-06-13T16:22:05.052Z,0.70
2018-06-13T16:24:34.284Z,0.60
2018-06-13T16:27:02.984Z,0.57
2018-06-13T16:29:32.035Z,0.60
2018-06-13T16:32:01.022Z,0.60
2018-06-13T16:34:29.780Z,0.70
2018-06-13T16:36:58.394Z,0.50
2018-06-13T16:39:26.968Z,0.60
2018-06-13T16:41:55.579Z,0.70
2018-06-13T16:44:24.164Z,0.70
2018-06-13T16:46:53.436Z,1.43
2018-06-13T16:49:22.052Z,2.20
2018-06-13T16:51:59.200Z,3.70
2018-06-13T16:54:38.963Z,3.70
2018-06-13T16:57:07.543Z,2.30
2018-06-13T16:59:36.128Z,2.70
2018-06-13T17:02:04.764Z,1.30
2018-06-13T17:04:33.347Z,1.60
2018-06-13T17:07:01.994Z,1.40
2018-06-13T17:09:30.665Z,1.80
2018-06-13T17:11:59.260Z,1.40
2018-06-13T17:14:27.862Z,1.27
2018-06-13T17:16:56.448Z,1.23
2018-06-13T17:19:25.055Z,0.70
2018-06-13T17:21:54.031Z,0.60
2018-06-13T17:24:22.607Z,0.70
2018-06-13T17:26:51.428Z,0.80
2018-06-13T17:29:20.016Z,0.80
2018-06-13T17:31:48.691Z,0.90
2018-06-13T17:34:17.369Z,0.80
2018-06-13T17:36:45.959Z,0.83
2018-06-13T17:39:14.591Z,0.90
2018-06-13T17:41:43.404Z,1.13
2018-06-13T17:44:12.219Z,0.90
2018-06-13T17:46:40.808Z,0.90
2018-06-13T17:49:10.030Z,0.90
2018-06-13T17:51:38.619Z,1.00
2018-06-13T17:54:07.294Z,0.90
2018-06-13T17:56:35.582Z,0.87
2018-06-13T17:59:04.636Z,0.70
2018-06-13T18:01:33.523Z,0.70
2018-06-13T18:04:02.130Z,0.80
2018-06-13T18:06:30.756Z,0.70
2018-06-13T18:08:59.361Z,0.83
2018-06-13T18:11:28.068Z,0.60
2018-06-13T18:13:56.690Z,0.60
2018-06-13T18:16:25.436Z,0.50
2018-06-13T18:18:54.029Z,1.00
2018-06-13T18:21:22.680Z,0.57
2018-06-13T18:23:51.291Z,0.60
2018-06-13T18:26:20.654Z,0.70
2018-06-13T18:28:49.236Z,0.80
2018-06-13T18:31:17.839Z,0.60
2018-06-13T18:33:46.496Z,0.70
2018-06-13T18:36:15.092Z,0.70
2018-06-13T18:38:43.669Z,0.60
2018-06-13T18:41:12.272Z,0.50
2018-06-13T18:43:40.868Z,0.70
2018-06-13T18:46:09.570Z,0.77
2018-06-13T18:48:38.112Z,0.50
2018-06-13T18:51:06.580Z,0.60
2018-06-13T18:53:35.380Z,0.53
2018-06-13T18:56:04.046Z,0.50
2018-06-13T18:58:33.092Z,0.40
2018-06-13T19:01:01.704Z,0.53
2018-06-13T19:03:30.424Z,0.50
2018-06-13T19:05:59.004Z,0.60
2018-06-13T19:08:30.226Z,0.60
2018-06-13T19:10:58.920Z,0.80
2018-06-13T19:13:27.571Z,0.60
2018-06-13T19:15:55.919Z,0.40
2018-06-13T19:18:24.519Z,0.40
2018-06-13T19:20:53.957Z,0.70
2018-06-13T19:23:22.547Z,0.50
2018-06-13T19:25:51.225Z,0.60
2018-06-13T19:28:19.802Z,0.50
2018-06-13T19:30:48.396Z,0.50
2018-06-13T19:33:16.970Z,0.47
2018-06-13T19:35:45.544Z,0.50
2018-06-13T19:38:14.168Z,0.50
2018-06-13T19:40:42.824Z,0.60
2018-06-13T19:43:17.448Z,0.40
2018-06-13T19:45:46.032Z,0.40
2018-06-13T19:48:19.849Z,0.50
2018-06-13T19:50:48.515Z,0.40
2018-06-13T19:53:22.416Z,0.50
2018-06-13T19:55:56.252Z,0.50
2018-06-13T19:58:25.140Z,0.50
2018-06-13T20:00:53.738Z,0.33
2018-06-13T20:03:27.704Z,0.50
2018-06-13T20:05:56.284Z,0.50
2018-06-13T20:08:24.900Z,0.50
2018-06-13T20:10:53.488Z,0.50
2018-06-13T20:13:27.456Z,0.50
2018-06-13T20:16:01.257Z,0.50
2018-06-13T20:18:35.811Z,0.40
2018-06-13T20:21:04.439Z,0.53
2018-06-13T20:23:33.084Z,0.40
2018-06-13T20:26:07.077Z,0.40
2018-06-13T20:28:41.032Z,0.40
2018-06-13T20:31:17.412Z,0.40
2018-06-13T20:33:46.009Z,0.30
2018-06-13T20:36:14.612Z,0.47
2018-06-13T20:38:43.200Z,0.40
2018-06-13T20:41:13.082Z,0.40
2018-06-13T20:43:41.741Z,0.40
2018-06-13T20:46:10.382Z,0.30
2018-06-13T20:48:38.968Z,0.40
2018-06-13T20:51:07.590Z,0.40
2018-06-13T20:53:36.192Z,0.40
2018-06-13T20:56:04.841Z,0.30
2018-06-13T20:58:33.431Z,0.40
2018-06-13T21:01:02.021Z,0.40
2018-06-13T21:03:30.750Z,0.30
2018-06-13T21:05:59.357Z,0.43
2018-06-13T21:08:28.228Z,0.40
2018-06-13T21:10:56.812Z,0.50
2018-06-13T21:13:25.411Z,0.50
2018-06-13T21:15:53.996Z,0.40
2018-06-13T21:18:22.593Z,0.40
2018-06-13T21:20:51.424Z,0.40
2018-06-13T21:23:20.040Z,0.30
2018-06-13T21:25:48.605Z,0.50
2018-06-13T21:28:17.666Z,0.50
2018-06-13T21:30:46.022Z,0.60
2018-06-13T21:33:14.672Z,0.40
2018-06-13T21:35:43.268Z,0.30
2018-06-13T21:38:11.855Z,0.50
2018-06-13T21:40:40.512Z,0.23
2018-06-13T21:43:09.256Z,0.30
2018-06-13T21:45:38.460Z,0.40
2018-06-13T21:48:07.084Z,0.40
2018-06-13T21:50:35.673Z,0.40
2018-06-13T21:53:04.280Z,0.40
2018-06-13T21:55:32.853Z,0.40
2018-06-13T21:58:01.640Z,0.30
2018-06-13T22:00:30.224Z,0.30
2018-06-13T22:02:59.356Z,0.50
2018-06-13T22:05:27.973Z,0.40
2018-06-13T22:07:57.588Z,0.40
2018-06-13T22:10:26.504Z,0.30
2018-06-13T22:12:55.088Z,0.40
2018-06-13T22:15:27.395Z,0.30
2018-06-13T22:17:57.444Z,0.30
2018-06-13T22:20:26.347Z,0.30
2018-06-13T22:27:30.975Z,0.30
2018-06-13T22:29:59.591Z,0.30
2018-06-13T22:32:28.149Z,0.30
2018-06-13T22:34:56.755Z,0.30
2018-06-13T22:37:25.810Z,0.30
2018-06-13T22:39:54.440Z,0.30
2018-06-13T22:42:23.031Z,0.30
2018-06-13T22:44:51.648Z,0.40
2018-06-13T22:47:20.272Z,0.30
2018-06-13T22:49:49.145Z,0.40
2018-06-13T22:52:17.752Z,0.30
2018-06-13T22:54:46.460Z,0.20
2018-06-13T22:57:14.711Z,0.20
2018-06-13T22:59:43.319Z,0.30
2018-06-13T23:02:11.913Z,0.37
2018-06-13T23:04:40.932Z,0.30
2018-06-13T23:07:09.753Z,0.40
2018-06-13T23:09:38.644Z,0.30
2018-06-13T23:12:07.260Z,0.30
2018-06-13T23:14:35.839Z,0.30
2018-06-13T23:17:04.427Z,0.30
2018-06-13T23:19:33.004Z,0.40
2018-06-13T23:22:01.624Z,0.30
2018-06-13T23:24:30.214Z,0.30
2018-06-13T23:26:58.796Z,0.40
2018-06-13T23:29:27.372Z,0.50
2018-06-13T23:31:55.975Z,0.50
2018-06-13T23:34:24.559Z,0.30
2018-06-13T23:36:53.147Z,0.33
2018-06-13T23:39:21.728Z,0.17
2018-06-13T23:41:50.307Z,0.30
2018-06-13T23:44:18.919Z,0.30
2018-06-13T23:46:48.325Z,0.30
2018-06-13T23:49:17.296Z,0.30
2018-06-13T23:51:46.616Z,0.30
2018-06-13T23:54:15.227Z,0.30
2018-06-13T23:56:44.151Z,0.40
2018-06-13T23:59:12.727Z,0.30
